Time;durP1;ratioP1;P1;durP2;ratioP2;P2;SDS_P1;SDS_P2;PMS_P1;PMS_P2;Temp;Humidity;BMP_temperature;BMP_pressure;BME280_temperature;BME280_humidity;BME280_pressure;Samples;Min_cycle;Max_cycle;Signal;HPM_P1;HPM_P2
2023/06/04 00:00:09;;;;;;;4.43;1.40;;;13.40;99.90;;;;;;5093407;28;20225;-56
2023/06/04 00:02:38;;;;;;;3.03;1.50;;;13.30;99.90;;;;;;5091382;28;20237;-56
2023/06/04 00:05:07;;;;;;;2.67;1.40;;;13.30;99.90;;;;;;5089046;28;20226;-57
2023/06/04 00:07:36;;;;;;;2.57;1.57;;;13.30;99.90;;;;;;5081052;28;20302;-57
2023/06/04 00:10:05;;;;;;;2.77;1.33;;;13.20;99.90;;;;;;5073025;28;20223;-57
2023/06/04 00:12:33;;;;;;;3.87;1.40;;;13.20;99.90;;;;;;5071431;28;20312;-57
2023/06/04 00:15:01;;;;;;;2.90;1.10;;;13.20;99.90;;;;;;5072961;28;20218;-56
2023/06/04 00:17:29;;;;;;;2.77;1.50;;;13.10;99.90;;;;;;5084033;28;20229;-56
2023/06/04 00:19:57;;;;;;;3.70;1.27;;;13.20;99.90;;;;;;5093001;28;20249;-56
2023/06/04 00:22:26;;;;;;;2.97;1.50;;;13.20;99.90;;;;;;5085778;28;20246;-54
2023/06/04 00:24:55;;;;;;;5.07;1.67;;;13.30;99.90;;;;;;5072677;28;20242;-57
2023/06/04 00:27:23;;;;;;;1.50;1.17;;;13.30;99.90;;;;;;5072684;28;20275;-57
2023/06/04 00:29:51;;;;;;;2.73;1.50;;;13.30;99.90;;;;;;5072817;28;20753;-57
2023/06/04 00:32:19;;;;;;;3.03;1.53;;;13.30;99.90;;;;;;5085094;28;20258;-57
2023/06/04 00:34:52;;;;;;;3.27;1.50;;;13.30;99.90;;;;;;5072317;28;20226;-57
2023/06/04 00:37:20;;;;;;;3.40;1.60;;;13.30;99.90;;;;;;5083706;28;20226;-56
2023/06/04 00:39:48;;;;;;;2.90;1.23;;;13.40;99.90;;;;;;5092624;28;20242;-57
2023/06/04 00:42:18;;;;;;;2.07;1.30;;;13.30;99.90;;;;;;5074628;28;20253;-57
2023/06/04 00:44:47;;;;;;;3.23;1.63;;;13.30;99.90;;;;;;5092563;28;20249;-57
2023/06/04 00:47:16;;;;;;;2.57;1.50;;;13.30;99.90;;;;;;5074539;28;20241;-57
2023/06/04 00:49:44;;;;;;;3.10;1.37;;;13.30;99.90;;;;;;5092193;28;20264;-57
2023/06/04 00:52:15;;;;;;;4.07;1.63;;;13.30;99.90;;;;;;5087619;28;20214;-56
2023/06/04 00:54:43;;;;;;;2.23;1.30;;;13.40;99.90;;;;;;5072334;28;20285;-57
2023/06/04 00:57:11;;;;;;;3.83;1.40;;;13.40;99.90;;;;;;5072529;28;20213;-57
2023/06/04 00:59:42;;;;;;;2.27;1.27;;;13.50;99.90;;;;;;5072242;28;20330;-57
2023/06/04 01:02:13;;;;;;;3.97;1.60;;;13.50;99.90;;;;;;5066470;28;20284;-57
2023/06/04 01:04:47;;;;;;;2.57;1.47;;;13.40;99.90;;;;;;5088742;28;20233;-56
2023/06/04 01:07:16;;;;;;;2.23;1.30;;;13.10;99.90;;;;;;5085583;28;20259;-56
2023/06/04 01:09:46;;;;;;;2.07;1.30;;;13.00;99.90;;;;;;5074468;28;20253;-57
2023/06/04 01:12:14;;;;;;;3.10;1.60;;;13.10;99.90;;;;;;5072365;28;20647;-57
2023/06/04 01:14:44;;;;;;;2.70;1.77;;;13.00;99.90;;;;;;5088526;28;20309;-57
2023/06/04 01:17:16;;;;;;;2.53;1.50;;;12.90;99.90;;;;;;5081112;28;20260;-57
2023/06/04 01:20:04;;;;;;;3.13;1.77;;;13.00;99.90;;;;;;5074234;28;20237;-56
2023/06/04 01:22:40;;;;;;;2.47;1.50;;;13.10;99.90;;;;;;5083614;28;20237;-57
2023/06/04 01:25:18;;;;;;;2.03;1.53;;;12.90;99.90;;;;;;5092091;28;20241;-57
2023/06/04 01:27:50;;;;;;;1.93;1.50;;;12.90;99.90;;;;;;5070484;28;20324;-57
2023/06/04 01:30:21;;;;;;;2.83;1.40;;;13.00;99.90;;;;;;5073607;28;20309;-56
2023/06/04 01:32:49;;;;;;;4.13;1.60;;;13.00;99.90;;;;;;5085189;28;20278;-56
2023/06/04 01:35:17;;;;;;;2.00;1.50;;;12.90;99.90;;;;;;5079588;28;20229;-56
2023/06/04 01:37:46;;;;;;;2.30;1.53;;;12.90;99.90;;;;;;5073930;28;20594;-57
2023/06/04 01:40:14;;;;;;;2.60;1.40;;;12.50;99.90;;;;;;5092186;28;20680;-57
2023/06/04 01:42:42;;;;;;;2.60;1.80;;;12.70;99.90;;;;;;5092004;28;20224;-57
2023/06/04 01:45:11;;;;;;;2.40;1.50;;;12.80;99.90;;;;;;5092300;28;20249;-56
2023/06/04 01:47:41;;;;;;;4.80;1.50;;;12.80;99.90;;;;;;5091866;28;20759;-57
2023/06/04 01:50:10;;;;;;;2.90;1.57;;;12.90;99.90;;;;;;5094875;28;20222;-57
2023/06/04 01:52:38;;;;;;;3.20;1.50;;;13.00;99.90;;;;;;5068906;28;20240;-56
2023/06/04 01:55:07;;;;;;;4.23;1.50;;;12.90;99.90;;;;;;5075602;28;20712;-57
2023/06/04 01:57:36;;;;;;;2.70;1.67;;;12.70;99.90;;;;;;5057317;28;20693;-57
2023/06/04 02:00:07;;;;;;;1.80;1.33;;;12.70;99.90;;;;;;5057533;28;20708;-57
2023/06/04 02:02:42;;;;;;;1.80;1.47;;;12.50;99.90;;;;;;5084982;28;20233;-56
2023/06/04 02:05:11;;;;;;;2.40;1.50;;;12.40;99.90;;;;;;5075181;28;20253;-57
2023/06/04 02:07:40;;;;;;;3.30;1.60;;;12.20;99.90;;;;;;5077168;28;20244;-57
2023/06/04 02:10:10;;;;;;;3.90;1.63;;;12.20;99.90;;;;;;5095509;28;20225;-54
2023/06/04 02:12:40;;;;;;;3.47;1.87;;;12.10;99.90;;;;;;5077162;28;20336;-57
2023/06/04 02:15:12;;;;;;;2.17;1.67;;;12.00;99.90;;;;;;5095635;28;20739;-57
2023/06/04 02:17:45;;;;;;;2.07;1.60;;;11.80;99.90;;;;;;5095184;28;20355;-55
2023/06/04 02:20:14;;;;;;;2.83;1.50;;;11.60;99.90;;;;;;5095075;28;20727;-57
2023/06/04 02:22:43;;;;;;;3.10;1.50;;;11.60;99.90;;;;;;5086380;28;20250;-57
2023/06/04 02:25:11;;;;;;;3.37;1.67;;;11.60;99.90;;;;;;5095487;28;20680;-56
2023/06/04 02:27:40;;;;;;;2.53;1.70;;;11.50;99.90;;;;;;5095056;28;20810;-57
2023/06/04 02:30:09;;;;;;;3.33;1.77;;;11.40;99.90;;;;;;5095090;28;20610;-55
2023/06/04 02:32:37;;;;;;;2.40;1.50;;;11.40;99.90;;;;;;5086089;28;20653;-56
2023/06/04 02:35:07;;;;;;;2.33;1.93;;;11.30;99.90;;;;;;5092790;28;20575;-57
2023/06/04 02:37:35;;;;;;;3.20;2.10;;;11.30;99.90;;;;;;5076397;28;20254;-56
2023/06/04 02:40:04;;;;;;;2.53;1.80;;;11.30;99.90;;;;;;5095076;28;20751;-57
2023/06/04 02:42:32;;;;;;;4.10;1.90;;;11.30;99.90;;;;;;5094731;28;20710;-57
2023/06/04 02:45:00;;;;;;;2.73;2.00;;;11.30;99.90;;;;;;5095115;28;20217;-57
2023/06/04 02:47:28;;;;;;;2.10;1.77;;;11.20;99.90;;;;;;5094446;28;20328;-56
2023/06/04 02:49:56;;;;;;;3.00;1.93;;;11.30;99.90;;;;;;5076254;28;20260;-57
2023/06/04 02:52:26;;;;;;;3.23;1.80;;;11.30;99.90;;;;;;5087889;28;20217;-55
2023/06/04 02:54:55;;;;;;;3.97;2.03;;;11.10;99.90;;;;;;5074374;28;20227;-57
2023/06/04 02:57:24;;;;;;;2.20;2.00;;;11.00;99.90;;;;;;5075415;28;20707;-57
2023/06/04 02:59:52;;;;;;;2.00;1.80;;;10.90;99.90;;;;;;5074311;28;20226;-57
2023/06/04 03:02:21;;;;;;;2.40;1.77;;;10.80;99.90;;;;;;5089684;28;20690;-57
2023/06/04 03:04:50;;;;;;;4.30;2.10;;;10.80;99.90;;;;;;5073748;28;20229;-57
2023/06/04 03:07:20;;;;;;;2.53;1.90;;;10.80;99.90;;;;;;5075617;28;20228;-57
2023/06/04 03:09:50;;;;;;;3.20;1.70;;;10.80;99.90;;;;;;5075695;28;20224;-57
2023/06/04 03:12:18;;;;;;;4.83;2.27;;;10.80;99.90;;;;;;5084713;28;20303;-56
2023/06/04 03:14:46;;;;;;;4.73;1.80;;;10.80;99.90;;;;;;5056996;28;20239;-57
2023/06/04 03:17:15;;;;;;;4.20;2.07;;;10.80;99.90;;;;;;5085725;28;20270;-57
2023/06/04 03:19:43;;;;;;;2.77;1.80;;;10.70;99.90;;;;;;5088717;28;20654;-57
2023/06/04 03:22:11;;;;;;;3.90;1.90;;;10.70;99.90;;;;;;5058778;28;20258;-56
2023/06/04 03:24:41;;;;;;;3.57;1.97;;;10.80;99.90;;;;;;5053612;28;20221;-56
2023/06/04 03:27:11;;;;;;;3.03;2.13;;;10.80;99.90;;;;;;5049126;28;20709;-56
2023/06/04 03:29:41;;;;;;;2.77;2.00;;;10.80;99.90;;;;;;5048170;28;20692;-57
2023/06/04 03:32:12;;;;;;;2.77;1.97;;;10.90;99.90;;;;;;5057453;28;20254;-56
2023/06/04 03:34:40;;;;;;;5.40;2.40;;;10.80;99.90;;;;;;5051515;28;20232;-57
2023/06/04 03:37:08;;;;;;;2.73;1.90;;;10.70;99.90;;;;;;5053409;28;20264;-57
2023/06/04 03:39:36;;;;;;;5.00;2.60;;;10.80;99.90;;;;;;5052086;28;20237;-57
2023/06/04 03:42:07;;;;;;;3.87;2.27;;;10.80;99.90;;;;;;5052192;28;20754;-57
2023/06/04 03:44:36;;;;;;;3.80;2.10;;;10.70;99.90;;;;;;5052027;28;20226;-57
2023/06/04 03:47:05;;;;;;;3.33;2.10;;;10.60;99.90;;;;;;5051948;28;20258;-56
2023/06/04 03:49:33;;;;;;;3.83;2.00;;;10.70;99.90;;;;;;5051906;28;20227;-56
2023/06/04 03:52:02;;;;;;;3.80;2.10;;;10.70;99.90;;;;;;5053297;28;20233;-56
2023/06/04 03:54:30;;;;;;;4.33;2.27;;;10.80;99.90;;;;;;5051906;28;20227;-56
2023/06/04 03:56:59;;;;;;;3.10;1.67;;;10.70;99.90;;;;;;5052195;28;20300;-57
2023/06/04 03:59:27;;;;;;;2.80;1.73;;;10.70;99.90;;;;;;5051807;28;20226;-55
2023/06/04 04:01:56;;;;;;;2.10;1.80;;;10.70;99.90;;;;;;5052534;28;20687;-57
2023/06/04 04:04:24;;;;;;;2.30;1.93;;;10.80;99.90;;;;;;5051616;28;20229;-56
2023/06/04 04:06:53;;;;;;;2.80;1.97;;;10.80;99.90;;;;;;5051386;28;20321;-56
2023/06/04 04:09:21;;;;;;;3.80;2.30;;;10.90;99.90;;;;;;5051696;28;20284;-56
2023/06/04 04:11:50;;;;;;;2.97;2.20;;;10.90;99.90;;;;;;5035195;28;20245;-57
2023/06/04 04:14:18;;;;;;;3.60;2.20;;;10.90;99.90;;;;;;5032648;28;20219;-57
2023/06/04 04:16:47;;;;;;;3.53;2.40;;;11.00;99.90;;;;;;5049561;28;20241;-57
2023/06/04 04:19:17;;;;;;;2.53;2.07;;;11.10;99.90;;;;;;5052689;28;20222;-57
2023/06/04 04:21:48;;;;;;;4.53;2.30;;;11.30;99.90;;;;;;5056244;28;20226;-57
2023/06/04 04:24:24;;;;;;;4.63;2.63;;;11.30;99.90;;;;;;5074837;28;20225;-56
2023/06/04 04:26:54;;;;;;;4.60;2.57;;;11.40;99.90;;;;;;5074923;28;20250;-57
2023/06/04 04:29:24;;;;;;;5.57;2.23;;;11.50;99.90;;;;;;5074762;28;20229;-56
2023/06/04 04:31:53;;;;;;;5.40;2.47;;;11.50;99.90;;;;;;5074189;28;20240;-57
2023/06/04 04:34:26;;;;;;;6.33;3.23;;;11.60;99.90;;;;;;5071337;28;20252;-55
2023/06/04 04:36:56;;;;;;;4.23;2.80;;;11.70;99.90;;;;;;5072133;28;20320;-57
2023/06/04 04:39:26;;;;;;;6.23;2.77;;;11.70;99.90;;;;;;5071288;28;20646;-56
2023/06/04 04:41:57;;;;;;;5.17;2.70;;;11.80;99.90;;;;;;5071327;28;20317;-57
2023/06/04 04:44:25;;;;;;;4.30;2.63;;;12.00;99.90;;;;;;5080581;28;20220;-57
2023/06/04 04:46:55;;;;;;;5.57;2.70;;;12.10;99.90;;;;;;5067189;28;20295;-57
2023/06/04 04:49:25;;;;;;;4.77;2.70;;;12.20;99.90;;;;;;5072304;28;20744;-57
2023/06/04 04:51:53;;;;;;;5.53;2.73;;;12.30;99.90;;;;;;5072821;28;20221;-55
2023/06/04 04:54:21;;;;;;;4.70;3.20;;;12.40;99.90;;;;;;5071192;28;20315;-56
2023/06/04 04:56:49;;;;;;;5.00;3.17;;;12.50;99.90;;;;;;5072320;28;20251;-57
2023/06/04 04:59:37;;;;;;;4.23;2.90;;;12.60;99.90;;;;;;5072279;28;20628;-57
2023/06/04 05:02:06;;;;;;;6.20;3.23;;;12.70;99.90;;;;;;5073806;28;20279;-57
2023/06/04 05:04:36;;;;;;;6.97;3.40;;;12.80;99.90;;;;;;5090626;28;20221;-54
2023/06/04 05:07:05;;;;;;;6.77;3.47;;;13.00;99.90;;;;;;5066393;28;20274;-58
2023/06/04 05:09:33;;;;;;;5.10;3.17;;;13.20;99.90;;;;;;5074213;28;20225;-57
2023/06/04 05:12:01;;;;;;;7.10;3.43;;;13.40;99.90;;;;;;5064781;28;20226;-57
2023/06/04 05:14:31;;;;;;;6.47;3.23;;;13.50;99.90;;;;;;5067311;28;20223;-56
2023/06/04 05:17:00;;;;;;;9.83;3.70;;;13.50;99.90;;;;;;5065190;28;20277;-57
2023/06/04 05:19:28;;;;;;;5.67;3.10;;;13.60;99.90;;;;;;5085345;28;20218;-57
2023/06/04 05:21:57;;;;;;;7.57;3.50;;;13.70;99.90;;;;;;5064198;28;20234;-58
2023/06/04 05:24:26;;;;;;;6.33;3.20;;;13.90;99.90;;;;;;5084329;28;20277;-57
2023/06/04 05:26:54;;;;;;;7.53;3.30;;;14.00;99.90;;;;;;5066582;28;20223;-57
2023/06/04 05:29:23;;;;;;;7.77;3.00;;;14.10;99.90;;;;;;5067040;28;20648;-57
2023/06/04 05:31:51;;;;;;;8.70;3.23;;;14.40;99.90;;;;;;5065536;28;20256;-57
2023/06/04 05:34:21;;;;;;;8.33;2.93;;;14.60;99.90;;;;;;5068968;28;20223;-57
2023/06/04 05:36:52;;;;;;;8.57;2.87;;;14.80;99.90;;;;;;5065266;28;20218;-58
2023/06/04 05:39:23;;;;;;;10.13;3.20;;;15.00;99.90;;;;;;5065960;28;20216;-58
2023/06/04 05:42:10;;;;;;;8.33;3.30;;;14.90;99.90;;;;;;5061070;28;20238;-57
2023/06/04 05:44:39;;;;;;;11.63;3.37;;;15.00;99.90;;;;;;5063984;28;20258;-57
2023/06/04 05:47:08;;;;;;;7.73;3.43;;;15.10;99.90;;;;;;5066851;28;20292;-56
2023/06/04 05:49:37;;;;;;;8.43;3.00;;;15.30;99.90;;;;;;5070865;28;20251;-57
2023/06/04 05:52:06;;;;;;;10.07;3.43;;;15.40;99.90;;;;;;5071228;28;20650;-57
2023/06/04 05:54:36;;;;;;;7.83;3.13;;;15.40;99.90;;;;;;5063372;28;20630;-57
2023/06/04 05:57:06;;;;;;;8.07;2.73;;;15.70;99.90;;;;;;5065311;28;20243;-57
2023/06/04 05:59:34;;;;;;;8.73;3.30;;;16.00;99.90;;;;;;5068090;28;20214;-57
2023/06/04 06:02:06;;;;;;;10.80;3.50;;;16.20;99.90;;;;;;5067712;28;20224;-57
2023/06/04 06:04:34;;;;;;;8.77;3.10;;;16.20;99.90;;;;;;5067280;28;20227;-57
2023/06/04 06:07:02;;;;;;;7.17;3.07;;;16.30;99.90;;;;;;5068993;28;20242;-57
2023/06/04 06:09:30;;;;;;;6.70;3.13;;;16.30;99.90;;;;;;5065387;28;20258;-57
2023/06/04 06:12:00;;;;;;;6.17;2.60;;;16.50;99.90;;;;;;5065328;28;20223;-57
2023/06/04 06:14:29;;;;;;;10.37;3.30;;;16.90;99.90;;;;;;5066217;28;20737;-56
2023/06/04 06:16:59;;;;;;;10.83;3.40;;;17.00;99.90;;;;;;5069441;28;20706;-57
2023/06/04 06:19:27;;;;;;;6.73;3.27;;;16.90;99.90;;;;;;5066520;28;20254;-56
2023/06/04 06:21:55;;;;;;;22.63;11.00;;;17.10;99.90;;;;;;5054980;28;20235;-57
2023/06/04 06:24:24;;;;;;;10.73;3.33;;;17.10;99.90;;;;;;5054986;28;20323;-57
2023/06/04 06:26:52;;;;;;;8.30;3.20;;;17.40;99.90;;;;;;5053727;28;20231;-57
2023/06/04 06:29:21;;;;;;;10.97;3.00;;;17.30;99.90;;;;;;5060751;28;20590;-57
2023/06/04 06:31:51;;;;;;;7.60;2.83;;;17.20;99.90;;;;;;5066056;28;20227;-57
2023/06/04 06:34:19;;;;;;;8.57;3.40;;;17.40;99.90;;;;;;5070969;28;20215;-57
2023/06/04 06:36:49;;;;;;;5.43;2.67;;;17.70;99.90;;;;;;5069188;28;20216;-57
2023/06/04 06:39:17;;;;;;;6.30;3.00;;;18.00;99.90;;;;;;5071182;28;20221;-56
2023/06/04 06:41:46;;;;;;;7.50;2.50;;;18.10;99.90;;;;;;5069098;28;20227;-57
2023/06/04 06:44:20;;;;;;;7.73;2.80;;;18.40;99.90;;;;;;5073307;28;20273;-57
2023/06/04 06:46:49;;;;;;;7.10;3.37;;;18.60;99.90;;;;;;5074142;28;20230;-56
2023/06/04 06:49:17;;;;;;;7.00;2.50;;;18.50;99.90;;;;;;5067820;28;20224;-55
2023/06/04 06:51:45;;;;;;;9.17;3.07;;;18.50;99.90;;;;;;5071247;28;20229;-53
2023/06/04 06:54:16;;;;;;;5.20;2.07;;;18.70;99.90;;;;;;5072836;28;20234;-58
2023/06/04 06:56:44;;;;;;;6.20;2.70;;;19.00;99.90;;;;;;5074477;28;20666;-55
2023/06/04 06:59:12;;;;;;;4.07;2.27;;;19.30;99.90;;;;;;5072869;28;20687;-53
2023/06/04 07:01:41;;;;;;;7.80;2.67;;;19.40;99.90;;;;;;5064964;28;20719;-49
2023/06/04 07:04:09;;;;;;;7.60;2.40;;;19.30;99.90;;;;;;5074185;28;20276;-51
2023/06/04 07:06:37;;;;;;;6.20;2.40;;;19.40;99.90;;;;;;5069595;28;20281;-51
2023/06/04 07:09:07;;;;;;;4.57;2.20;;;19.60;99.90;;;;;;5060808;28;20250;-51
2023/06/04 07:11:35;;;;;;;4.63;2.17;;;19.80;99.90;;;;;;5070408;28;20594;-51
2023/06/04 07:14:03;;;;;;;5.40;2.10;;;19.90;99.90;;;;;;5073390;28;20237;-51
2023/06/04 07:16:32;;;;;;;3.60;1.97;;;20.00;99.90;;;;;;5073342;28;20230;-50
2023/06/04 07:19:02;;;;;;;5.40;2.33;;;20.30;99.90;;;;;;5061194;28;20652;-52
2023/06/04 07:21:30;;;;;;;4.17;2.33;;;20.50;99.90;;;;;;5055082;28;20229;-52
2023/06/04 07:23:58;;;;;;;5.07;2.00;;;20.70;99.90;;;;;;5055624;28;20612;-51
2023/06/04 07:26:30;;;;;;;5.17;2.00;;;20.90;99.90;;;;;;5057135;28;20257;-52
2023/06/04 07:29:01;;;;;;;4.73;1.90;;;20.90;99.90;;;;;;5055134;28;20222;-51
2023/06/04 07:31:28;;;;;;;4.07;2.10;;;21.10;99.90;;;;;;5056167;28;20246;-53
2023/06/04 07:33:56;;;;;;;3.70;1.90;;;21.30;99.90;;;;;;5057694;28;20317;-51
2023/06/04 07:36:26;;;;;;;5.80;2.30;;;21.20;99.90;;;;;;5057130;28;20227;-51
2023/06/04 07:38:54;;;;;;;3.97;1.80;;;21.00;99.90;;;;;;5055561;28;20667;-51
2023/06/04 07:41:22;;;;;;;3.63;1.70;;;21.20;99.90;;;;;;5056389;28;20706;-52
2023/06/04 07:43:50;;;;;;;3.80;2.00;;;21.40;99.90;;;;;;5056830;28;20234;-52
2023/06/04 07:46:19;;;;;;;3.47;1.70;;;21.70;99.90;;;;;;5056065;28;20241;-53
2023/06/04 07:48:47;;;;;;;4.00;2.00;;;21.80;99.90;;;;;;5059773;28;20252;-50
2023/06/04 07:51:15;;;;;;;2.57;1.50;;;22.10;99.90;;;;;;5061729;28;20230;-52
2023/06/04 07:53:44;;;;;;;3.13;1.73;;;22.30;99.90;;;;;;5061778;28;20226;-51
2023/06/04 07:56:13;;;;;;;3.60;1.60;;;22.30;99.90;;;;;;5061234;28;20226;-52
2023/06/04 07:58:41;;;;;;;3.00;1.50;;;22.50;99.90;;;;;;5059109;28;20223;-52
2023/06/04 08:01:09;;;;;;;3.50;2.03;;;22.40;99.90;;;;;;5061209;28;20242;-52
2023/06/04 08:03:38;;;;;;;3.40;1.80;;;22.50;99.90;;;;;;5061294;28;20254;-51
2023/06/04 08:06:06;;;;;;;2.67;1.40;;;22.60;99.90;;;;;;5061528;28;20227;-54
2023/06/04 08:08:34;;;;;;;3.80;1.50;;;22.80;99.90;;;;;;5059271;28;20810;-52
2023/06/04 08:11:04;;;;;;;2.93;1.30;;;22.90;99.90;;;;;;5060501;28;20226;-53
2023/06/04 08:13:32;;;;;;;5.13;1.60;;;23.10;99.90;;;;;;5057302;28;20626;-52
2023/06/04 08:16:00;;;;;;;3.17;1.83;;;23.20;99.90;;;;;;5056002;28;20223;-52
2023/06/04 08:18:28;;;;;;;4.33;1.60;;;23.50;99.90;;;;;;5053237;28;20894;-52
2023/06/04 08:20:56;;;;;;;3.33;1.40;;;23.40;99.90;;;;;;5057222;28;21001;-50
2023/06/04 08:23:24;;;;;;;3.27;1.50;;;23.30;99.90;;;;;;5061460;28;20239;-51
2023/06/04 08:25:52;;;;;;;3.30;1.60;;;23.60;99.90;;;;;;5060541;28;20284;-51
2023/06/04 08:28:22;;;;;;;3.30;1.80;;;24.10;99.90;;;;;;5059346;28;20642;-50
2023/06/04 08:30:50;;;;;;;5.07;1.80;;;24.40;99.90;;;;;;5058480;28;20896;-50
2023/06/04 08:33:18;;;;;;;4.83;2.10;;;24.20;99.90;;;;;;5054801;28;20229;-50
2023/06/04 08:35:46;;;;;;;5.13;2.03;;;23.90;99.90;;;;;;5055192;28;20228;-53
2023/06/04 08:38:14;;;;;;;3.57;1.97;;;24.00;99.90;;;;;;5054400;28;20227;-52
2023/06/04 08:40:43;;;;;;;3.37;1.63;;;23.90;99.90;;;;;;5056202;28;20643;-53
2023/06/04 08:43:11;;;;;;;4.93;1.67;;;23.90;99.90;;;;;;5055920;28;20698;-52
2023/06/04 08:45:44;;;;;;;3.20;1.73;;;24.50;99.90;;;;;;5055612;28;20235;-51
2023/06/04 08:48:12;;;;;;;3.67;1.63;;;24.20;99.90;;;;;;5057573;28;20287;-52
2023/06/04 08:50:43;;;;;;;2.30;1.20;;;23.80;99.90;;;;;;5060721;28;20239;-52
2023/06/04 08:53:14;;;;;;;2.37;1.27;;;23.90;99.90;;;;;;5061459;28;20234;-51
2023/06/04 08:55:43;;;;;;;3.77;1.83;;;24.10;99.90;;;;;;5060240;28;20239;-49
2023/06/04 08:58:12;;;;;;;4.57;1.50;;;24.40;99.90;;;;;;5059496;28;20227;-52
2023/06/04 09:00:42;;;;;;;2.57;1.40;;;25.00;99.80;;;;;;5064451;28;20326;-51
2023/06/04 09:03:11;;;;;;;2.67;1.80;;;25.20;97.90;;;;;;5065122;28;20235;-51
2023/06/04 09:05:42;;;;;;;4.30;1.60;;;25.60;98.40;;;;;;5063687;28;20396;-50
2023/06/04 09:08:13;;;;;;;4.37;1.63;;;25.60;98.60;;;;;;5063318;28;20722;-52
2023/06/04 09:10:42;;;;;;;4.47;1.73;;;25.30;97.70;;;;;;5064718;28;20230;-52
2023/06/04 09:13:11;;;;;;;2.37;1.43;;;25.20;98.80;;;;;;5062951;28;20235;-50
2023/06/04 09:15:39;;;;;;;2.40;1.50;;;25.90;98.70;;;;;;5064770;28;20233;-53
2023/06/04 09:18:09;;;;;;;3.80;1.80;;;26.00;98.50;;;;;;5062579;28;21102;-53
2023/06/04 09:20:37;;;;;;;3.33;1.77;;;25.50;98.00;;;;;;5064492;28;20222;-52
2023/06/04 09:23:13;;;;;;;5.73;1.90;;;25.50;99.20;;;;;;5064612;28;20253;-51
2023/06/04 09:25:44;;;;;;;4.67;1.70;;;25.60;97.20;;;;;;5064421;28;21177;-51
2023/06/04 09:28:12;;;;;;;2.17;1.27;;;25.50;98.10;;;;;;5062894;28;20344;-52
2023/06/04 09:30:51;;;;;;;2.90;1.57;;;25.60;97.60;;;;;;5059290;28;20608;-51
2023/06/04 09:33:21;;;;;;;3.33;1.50;;;26.40;95.80;;;;;;5059628;28;20665;-50
2023/06/04 09:35:55;;;;;;;3.17;1.47;;;26.20;95.70;;;;;;5059354;28;20227;-49
2023/06/04 09:38:23;;;;;;;2.83;1.53;;;26.20;97.20;;;;;;5057081;28;20720;-52
2023/06/04 09:40:51;;;;;;;4.20;1.50;;;26.70;97.70;;;;;;5062640;28;20774;-51
2023/06/04 09:43:23;;;;;;;4.23;1.63;;;26.90;95.20;;;;;;5064368;28;20227;-50
2023/06/04 09:45:52;;;;;;;4.80;1.67;;;27.10;95.80;;;;;;5064261;28;20219;-51
2023/06/04 09:48:22;;;;;;;3.00;1.50;;;27.60;95.90;;;;;;5062640;28;20589;-51
2023/06/04 09:50:50;;;;;;;2.93;1.60;;;27.50;94.60;;;;;;5063857;28;20240;-53
2023/06/04 09:53:22;;;;;;;4.17;1.67;;;27.60;95.20;;;;;;5064433;28;20235;-51
2023/06/04 09:55:58;;;;;;;3.03;1.50;;;27.60;95.70;;;;;;5060499;28;20317;-52
2023/06/04 09:58:28;;;;;;;3.67;1.57;;;27.70;94.90;;;;;;5056806;28;20225;-52
2023/06/04 10:00:58;;;;;;;4.87;1.60;;;27.60;95.50;;;;;;5059068;28;20348;-50
2023/06/04 10:03:33;;;;;;;3.27;1.63;;;27.70;94.10;;;;;;5060265;28;20591;-50
2023/06/04 10:06:04;;;;;;;3.77;1.60;;;27.50;93.70;;;;;;5062383;28;20222;-50
2023/06/04 10:08:35;;;;;;;3.33;1.67;;;27.50;94.50;;;;;;5060555;28;20227;-51
2023/06/04 10:11:05;;;;;;;3.70;1.60;;;27.40;93.40;;;;;;5057409;28;20232;-51
2023/06/04 10:13:42;;;;;;;3.37;1.40;;;27.70;94.70;;;;;;5059501;28;20216;-52
2023/06/04 10:16:12;;;;;;;4.33;1.80;;;27.80;93.60;;;;;;5057496;28;20226;-52
2023/06/04 10:18:55;;;;;;;2.60;1.70;;;27.60;92.40;;;;;;5057786;28;20277;-52
2023/06/04 10:21:24;;;;;;;3.67;1.50;;;27.30;93.20;;;;;;5064078;28;20593;-53
2023/06/04 10:23:52;;;;;;;4.47;1.50;;;27.50;93.90;;;;;;5068504;28;20257;-51
2023/06/04 10:26:21;;;;;;;3.03;1.50;;;27.30;93.30;;;;;;5057608;28;20225;-50
2023/06/04 10:28:50;;;;;;;2.10;1.40;;;27.90;93.40;;;;;;5058283;28;20223;-52
2023/06/04 10:31:18;;;;;;;2.63;1.40;;;28.20;93.30;;;;;;5058398;28;20666;-52
2023/06/04 10:33:47;;;;;;;2.10;1.40;;;28.00;92.00;;;;;;5058442;28;20235;-54
2023/06/04 10:36:20;;;;;;;3.63;1.57;;;28.00;92.60;;;;;;5060046;28;20237;-51
2023/06/04 10:38:52;;;;;;;3.23;1.60;;;28.20;91.50;;;;;;5062936;28;20227;-52
2023/06/04 10:41:24;;;;;;;4.03;1.50;;;27.80;91.20;;;;;;5062994;28;20268;-51
2023/06/04 10:44:02;;;;;;;4.17;1.40;;;27.70;92.10;;;;;;5063264;28;20753;-53
2023/06/04 10:46:40;;;;;;;4.87;1.60;;;28.00;92.30;;;;;;5063321;28;20233;-52
2023/06/04 10:49:10;;;;;;;2.90;1.43;;;28.50;91.90;;;;;;5063325;28;20227;-51
2023/06/04 10:51:40;;;;;;;2.50;1.43;;;28.60;91.70;;;;;;5062867;28;20287;-51
2023/06/04 10:54:09;;;;;;;3.87;1.70;;;28.60;90.20;;;;;;5061383;28;20227;-50
2023/06/04 10:56:37;;;;;;;2.20;1.57;;;28.20;90.00;;;;;;5061628;28;20777;-50
2023/06/04 10:59:15;;;;;;;2.80;1.47;;;27.80;89.10;;;;;;5063094;28;20226;-53
2023/06/04 11:01:44;;;;;;;4.13;1.67;;;27.70;89.80;;;;;;5063018;28;20229;-51
2023/06/04 11:04:22;;;;;;;4.20;1.50;;;27.60;90.40;;;;;;5061620;28;20623;-51
2023/06/04 11:07:02;;;;;;;2.47;1.60;;;27.80;90.10;;;;;;5063269;28;21241;-51
2023/06/04 11:09:36;;;;;;;2.67;1.50;;;28.10;90.30;;;;;;5062908;28;20241;-51
2023/06/04 11:12:07;;;;;;;2.90;1.30;;;28.50;86.50;;;;;;5062476;28;20221;-50
2023/06/04 11:14:35;;;;;;;2.70;1.53;;;28.80;88.80;;;;;;5053658;28;20362;-52
2023/06/04 11:17:12;;;;;;;2.93;1.40;;;29.10;87.70;;;;;;5058056;28;20306;-51
2023/06/04 11:19:41;;;;;;;2.83;1.40;;;29.40;87.30;;;;;;5057861;28;21110;-52
2023/06/04 11:22:13;;;;;;;1.53;1.23;;;29.60;86.50;;;;;;5056292;28;20235;-52
2023/06/04 11:24:41;;;;;;;3.13;1.40;;;29.30;85.30;;;;;;5054211;28;20339;-51
2023/06/04 11:27:09;;;;;;;3.77;1.77;;;28.90;83.70;;;;;;5056814;28;20306;-49
2023/06/04 11:29:52;;;;;;;3.60;1.50;;;28.20;84.20;;;;;;5056916;28;20230;-53
2023/06/04 11:32:24;;;;;;;2.77;1.30;;;28.40;88.60;;;;;;5055561;28;20273;-51
2023/06/04 11:35:04;;;;;;;2.63;1.30;;;28.90;85.50;;;;;;5052765;28;20223;-49
2023/06/04 11:37:35;;;;;;;2.03;1.50;;;29.00;83.10;;;;;;5055264;28;20240;-52
2023/06/04 11:40:05;;;;;;;1.70;1.10;;;29.30;82.80;;;;;;5058178;28;20241;-51
2023/06/04 11:42:36;;;;;;;1.77;1.27;;;29.50;82.30;;;;;;5058008;28;20679;-51
2023/06/04 11:45:04;;;;;;;1.83;1.17;;;29.50;79.20;;;;;;5059862;28;20287;-52
2023/06/04 11:47:32;;;;;;;1.40;1.20;;;29.10;79.00;;;;;;5059086;28;20238;-52
2023/06/04 11:50:01;;;;;;;2.57;1.47;;;28.80;81.30;;;;;;5057133;28;20284;-52
2023/06/04 11:52:29;;;;;;;1.57;1.13;;;29.00;80.30;;;;;;5056049;28;20255;-50
2023/06/04 11:54:58;;;;;;;2.03;1.13;;;28.70;79.70;;;;;;5052418;28;20712;-51
2023/06/04 11:57:30;;;;;;;3.90;1.10;;;28.80;82.00;;;;;;5056633;28;20334;-50
2023/06/04 11:59:58;;;;;;;2.07;1.30;;;28.50;79.10;;;;;;5056144;28;20721;-52
2023/06/04 12:02:26;;;;;;;4.00;1.10;;;28.30;80.70;;;;;;5060684;28;20308;-50
2023/06/04 12:04:54;;;;;;;2.73;1.30;;;27.90;83.20;;;;;;5059153;28;20255;-52
2023/06/04 12:07:24;;;;;;;2.67;1.30;;;27.60;82.30;;;;;;5061759;28;20223;-50
2023/06/04 12:09:52;;;;;;;2.67;1.20;;;27.40;84.00;;;;;;5061029;28;20770;-51
2023/06/04 12:12:24;;;;;;;1.90;1.20;;;27.20;84.20;;;;;;5061905;28;20235;-52
2023/06/04 12:14:59;;;;;;;3.00;1.30;;;26.50;87.80;;;;;;5059113;28;20227;-52
2023/06/04 12:17:27;;;;;;;2.40;1.10;;;26.10;87.90;;;;;;5061339;28;20226;-51
2023/06/04 12:19:57;;;;;;;2.00;1.20;;;26.10;87.60;;;;;;5060982;28;20226;-51
2023/06/04 12:22:26;;;;;;;1.90;1.07;;;26.10;88.30;;;;;;5061385;28;20667;-51
2023/06/04 12:24:55;;;;;;;1.87;1.30;;;26.30;88.10;;;;;;5059503;28;20717;-52
2023/06/04 12:27:26;;;;;;;2.17;1.17;;;26.20;87.10;;;;;;5061151;28;20213;-53
2023/06/04 12:29:59;;;;;;;1.33;1.00;;;26.00;87.30;;;;;;5059309;28;20317;-51
2023/06/04 12:32:27;;;;;;;1.70;1.20;;;25.90;89.40;;;;;;5055492;28;20773;-52
2023/06/04 12:34:56;;;;;;;2.47;1.20;;;26.00;89.90;;;;;;5052698;28;20231;-52
2023/06/04 12:37:28;;;;;;;2.40;1.10;;;26.10;89.90;;;;;;5056312;28;20233;-50
2023/06/04 12:39:57;;;;;;;2.63;1.20;;;25.90;90.10;;;;;;5057484;28;20255;-49
2023/06/04 12:42:27;;;;;;;2.57;1.20;;;25.40;90.40;;;;;;5056138;28;20246;-51
2023/06/04 12:44:56;;;;;;;2.57;1.30;;;25.50;90.70;;;;;;5053154;28;20303;-51
2023/06/04 12:47:24;;;;;;;2.80;1.20;;;25.20;88.90;;;;;;5055914;28;20222;-51
2023/06/04 12:49:52;;;;;;;2.87;1.50;;;25.00;91.60;;;;;;5056310;28;20226;-51
2023/06/04 12:52:20;;;;;;;3.63;1.57;;;25.10;92.20;;;;;;5055731;28;20249;-52
2023/06/04 12:54:49;;;;;;;2.73;1.27;;;25.00;92.10;;;;;;5050554;28;20238;-53
2023/06/04 12:57:17;;;;;;;2.40;1.17;;;25.00;92.20;;;;;;5055625;28;20519;-52